sensor_id;sensor_type;location;lat;lon;timestamp;temperature;humidity
30134;DHT22;16946;49.984;10.672;2023-06-05T00:00:26;13.80;99.90
30134;DHT22;16946;49.984;10.672;2023-06-05T00:00:56;13.80;99.90
30134;DHT22;16946;49.984;10.672;2023-06-05T00:01:27;13.70;99.90
30134;DHT22;16946;49.984;10.672;2023-06-05T00:01:58;13.70;99.90
30134;DHT22;16946;49.984;10.672;2023-06-05T00:02:28;13.70;99.90
30134;DHT22;16946;49.984;10.672;2023-06-05T00:02:59;13.70;99.90
30134;DHT22;16946;49.984;10.672;2023-06-05T00:03:29;13.60;99.90
30134;DHT22;16946;49.984;10.672;2023-06-05T00:04:00;13.60;1.00
30134;DHT22;16946;49.984;10.672;2023-06-05T00:04:31;13.50;39.50
30134;DHT22;16946;49.984;10.672;2023-06-05T00:05:01;13.40;98.60
30134;DHT22;16946;49.984;10.672;2023-06-05T00:05:32;13.40;99.90
30134;DHT22;16946;49.984;10.672;2023-06-05T00:06:03;13.40;99.90
30134;DHT22;16946;49.984;10.672;2023-06-05T00:06:34;13.30;99.90
30134;DHT22;16946;49.984;10.672;2023-06-05T00:07:05;13.20;99.90
30134;DHT22;16946;49.984;10.672;2023-06-05T00:07:36;13.20;1.00
30134;DHT22;16946;49.984;10.672;2023-06-05T00:08:09;13.20;2.60
30134;DHT22;16946;49.984;10.672;2023-06-05T00:08:40;13.20;55.40
30134;DHT22;16946;49.984;10.672;2023-06-05T00:09:10;13.10;91.80
30134;DHT22;16946;49.984;10.672;2023-06-05T00:09:43;13.20;99.90
30134;DHT22;16946;49.984;10.672;2023-06-05T00:10:13;13.20;99.90
30134;DHT22;16946;49.984;10.672;2023-06-05T00:10:44;13.10;99.90
30134;DHT22;16946;49.984;10.672;2023-06-05T00:11:14;13.10;99.90
30134;DHT22;16946;49.984;10.672;2023-06-05T00:11:45;13.10;99.90
30134;DHT22;16946;49.984;10.672;2023-06-05T00:12:16;13.10;99.90
30134;DHT22;16946;49.984;10.672;2023-06-05T00:12:47;13.10;99.90
30134;DHT22;16946;49.984;10.672;2023-06-05T00:13:17;13.20;99.90
30134;DHT22;16946;49.984;10.672;2023-06-05T00:13:48;13.10;99.90
30134;DHT22;16946;49.984;10.672;2023-06-05T00:14:19;13.10;99.90
30134;DHT22;16946;49.984;10.672;2023-06-05T00:14:50;13.10;99.90
30134;DHT22;16946;49.984;10.672;2023-06-05T00:15:21;13.10;99.90
30134;DHT22;16946;49.984;10.672;2023-06-05T00:15:51;13.10;99.90
30134;DHT22;16946;49.984;10.672;2023-06-05T00:16:23;13.10;99.90
30134;DHT22;16946;49.984;10.672;2023-06-05T00:16:54;13.00;99.90
30134;DHT22;16946;49.984;10.672;2023-06-05T00:17:26;13.00;99.90
30134;DHT22;16946;49.984;10.672;2023-06-05T00:17:57;12.90;99.90
30134;DHT22;16946;49.984;10.672;2023-06-05T00:18:28;13.00;99.90
30134;DHT22;16946;49.984;10.672;2023-06-05T00:18:59;13.00;1.00
30134;DHT22;16946;49.984;10.672;2023-06-05T00:19:30;12.90;1.00
30134;DHT22;16946;49.984;10.672;2023-06-05T00:20:01;12.90;23.30
30134;DHT22;16946;49.984;10.672;2023-06-05T00:20:31;12.90;24.00
30134;DHT22;16946;49.984;10.672;2023-06-05T00:21:02;12.90;98.50
30134;DHT22;16946;49.984;10.672;2023-06-05T00:21:34;12.80;99.90
30134;DHT22;16946;49.984;10.672;2023-06-05T00:22:05;12.80;99.90
30134;DHT22;16946;49.984;10.672;2023-06-05T00:22:36;12.70;99.90
30134;DHT22;16946;49.984;10.672;2023-06-05T00:23:09;12.70;99.90
30134;DHT22;16946;49.984;10.672;2023-06-05T00:23:41;12.60;1.00
30134;DHT22;16946;49.984;10.672;2023-06-05T00:24:12;12.60;14.30
30134;DHT22;16946;49.984;10.672;2023-06-05T00:24:42;12.60;58.60
30134;DHT22;16946;49.984;10.672;2023-06-05T00:25:13;12.60;99.90
30134;DHT22;16946;49.984;10.672;2023-06-05T00:25:43;12.60;99.90
30134;DHT22;16946;49.984;10.672;2023-06-05T00:26:14;12.50;99.90
30134;DHT22;16946;49.984;10.672;2023-06-05T00:26:44;12.50;99.90
30134;DHT22;16946;49.984;10.672;2023-06-05T00:27:15;12.60;99.90
30134;DHT22;16946;49.984;10.672;2023-06-05T00:27:45;12.50;99.90
30134;DHT22;16946;49.984;10.672;2023-06-05T00:28:16;12.50;99.90
30134;DHT22;16946;49.984;10.672;2023-06-05T00:28:47;12.50;99.90
30134;DHT22;16946;49.984;10.672;2023-06-05T00:29:18;12.50;99.90
30134;DHT22;16946;49.984;10.672;2023-06-05T00:29:49;12.40;99.90
30134;DHT22;16946;49.984;10.672;2023-06-05T00:30:19;12.40;99.90
30134;DHT22;16946;49.984;10.672;2023-06-05T00:30:50;12.40;99.90
30134;DHT22;16946;49.984;10.672;2023-06-05T00:31:20;12.40;99.90
30134;DHT22;16946;49.984;10.672;2023-06-05T00:31:52;12.40;99.90
30134;DHT22;16946;49.984;10.672;2023-06-05T00:32:23;12.40;99.90
30134;DHT22;16946;49.984;10.672;2023-06-05T00:32:55;12.40;99.90
30134;DHT22;16946;49.984;10.672;2023-06-05T00:33:26;12.30;1.00
30134;DHT22;16946;49.984;10.672;2023-06-05T00:33:57;12.30;5.20
30134;DHT22;16946;49.984;10.672;2023-06-05T00:34:27;12.30;49.90
30134;DHT22;16946;49.984;10.672;2023-06-05T00:34:58;12.30;91.10
30134;DHT22;16946;49.984;10.672;2023-06-05T00:35:28;12.20;99.90
30134;DHT22;16946;49.984;10.672;2023-06-05T00:35:59;12.20;99.90
30134;DHT22;16946;49.984;10.672;2023-06-05T00:36:29;12.20;99.90
30134;DHT22;16946;49.984;10.672;2023-06-05T00:37:00;12.20;99.90
30134;DHT22;16946;49.984;10.672;2023-06-05T00:37:30;12.20;99.90
30134;DHT22;16946;49.984;10.672;2023-06-05T00:38:01;12.10;99.90
30134;DHT22;16946;49.984;10.672;2023-06-05T00:38:32;12.10;99.90
30134;DHT22;16946;49.984;10.672;2023-06-05T00:39:03;12.10;99.90
30134;DHT22;16946;49.984;10.672;2023-06-05T00:39:33;12.10;99.90
30134;DHT22;16946;49.984;10.672;2023-06-05T00:40:06;12.10;99.90
30134;DHT22;16946;49.984;10.672;2023-06-05T00:40:36;12.00;99.90
30134;DHT22;16946;49.984;10.672;2023-06-05T00:41:07;12.00;99.90
30134;DHT22;16946;49.984;10.672;2023-06-05T00:41:37;12.00;99.90
30134;DHT22;16946;49.984;10.672;2023-06-05T00:42:12;12.00;99.90
30134;DHT22;16946;49.984;10.672;2023-06-05T00:42:42;12.00;99.90
30134;DHT22;16946;49.984;10.672;2023-06-05T00:43:13;11.90;99.90
30134;DHT22;16946;49.984;10.672;2023-06-05T00:43:43;11.90;99.90
30134;DHT22;16946;49.984;10.672;2023-06-05T00:44:14;11.90;99.90
30134;DHT22;16946;49.984;10.672;2023-06-05T00:44:44;11.90;99.90
30134;DHT22;16946;49.984;10.672;2023-06-05T00:45:16;11.90;99.90
30134;DHT22;16946;49.984;10.672;2023-06-05T00:45:47;11.90;99.90
30134;DHT22;16946;49.984;10.672;2023-06-05T00:46:19;11.90;99.90
30134;DHT22;16946;49.984;10.672;2023-06-05T00:46:51;11.90;99.90
30134;DHT22;16946;49.984;10.672;2023-06-05T00:47:22;11.80;1.00
30134;DHT22;16946;49.984;10.672;2023-06-05T00:47:53;11.80;1.00
30134;DHT22;16946;49.984;10.672;2023-06-05T00:48:23;11.80;1.00
30134;DHT22;16946;49.984;10.672;2023-06-05T00:48:54;11.70;1.00
30134;DHT22;16946;49.984;10.672;2023-06-05T00:49:25;11.70;1.00
30134;DHT22;16946;49.984;10.672;2023-06-05T00:49:55;11.70;1.00
30134;DHT22;16946;49.984;10.672;2023-06-05T00:50:26;11.70;1.00
30134;DHT22;16946;49.984;10.672;2023-06-05T00:50:57;11.70;11.80
30134;DHT22;16946;49.984;10.672;2023-06-05T00:51:28;11.70;11.20
30134;DHT22;16946;49.984;10.672;2023-06-05T00:51:59;11.60;9.70
30134;DHT22;16946;49.984;10.672;2023-06-05T00:52:32;11.60;19.90
30134;DHT22;16946;49.984;10.672;2023-06-05T00:53:05;11.60;16.20
30134;DHT22;16946;49.984;10.672;2023-06-05T00:53:38;11.60;14.80
30134;DHT22;16946;49.984;10.672;2023-06-05T00:54:09;11.60;26.00
30134;DHT22;16946;49.984;10.672;2023-06-05T00:54:41;11.60;22.10
30134;DHT22;16946;49.984;10.672;2023-06-05T00:55:12;11.60;17.70
30134;DHT22;16946;49.984;10.672;2023-06-05T00:55:42;11.60;18.30
30134;DHT22;16946;49.984;10.672;2023-06-05T00:56:13;11.60;13.30
30134;DHT22;16946;49.984;10.672;2023-06-05T00:56:44;11.60;13.50
30134;DHT22;16946;49.984;10.672;2023-06-05T00:57:14;11.60;1.00
30134;DHT22;16946;49.984;10.672;2023-06-05T00:57:45;11.60;4.90
30134;DHT22;16946;49.984;10.672;2023-06-05T00:58:16;11.60;3.70
30134;DHT22;16946;49.984;10.672;2023-06-05T00:58:47;11.60;1.50
30134;DHT22;16946;49.984;10.672;2023-06-05T00:59:18;11.60;1.00
30134;DHT22;16946;49.984;10.672;2023-06-05T00:59:50;11.60;1.00
30134;DHT22;16946;49.984;10.672;2023-06-05T01:00:21;11.60;1.00
30134;DHT22;16946;49.984;10.672;2023-06-05T01:00:52;11.60;1.00
30134;DHT22;16946;49.984;10.672;2023-06-05T01:01:24;11.60;1.00
30134;DHT22;16946;49.984;10.672;2023-06-05T01:01:55;11.60;1.00
30134;DHT22;16946;49.984;10.672;2023-06-05T01:02:25;11.60;1.00
30134;DHT22;16946;49.984;10.672;2023-06-05T01:02:57;11.60;1.00
30134;DHT22;16946;49.984;10.672;2023-06-05T01:03:28;11.70;1.00
30134;DHT22;16946;49.984;10.672;2023-06-05T01:04:04;11.60;1.00
30134;DHT22;16946;49.984;10.672;2023-06-05T01:04:34;11.70;1.00
30134;DHT22;16946;49.984;10.672;2023-06-05T01:05:07;11.60;1.00
30134;DHT22;16946;49.984;10.672;2023-06-05T01:05:38;11.70;1.00
30134;DHT22;16946;49.984;10.672;2023-06-05T01:06:09;11.70;1.00
30134;DHT22;16946;49.984;10.672;2023-06-05T01:06:42;11.70;1.00
30134;DHT22;16946;49.984;10.672;2023-06-05T01:07:15;11.70;1.00
30134;DHT22;16946;49.984;10.672;2023-06-05T01:07:46;11.70;1.00
30134;DHT22;16946;49.984;10.672;2023-06-05T01:08:20;11.60;1.00
30134;DHT22;16946;49.984;10.672;2023-06-05T01:08:55;11.60;1.00
30134;DHT22;16946;49.984;10.672;2023-06-05T01:09:27;11.60;1.00
30134;DHT22;16946;49.984;10.672;2023-06-05T01:10:01;11.60;1.00
30134;DHT22;16946;49.984;10.672;2023-06-05T01:10:33;11.60;1.00
30134;DHT22;16946;49.984;10.672;2023-06-05T01:11:11;11.60;1.00
30134;DHT22;16946;49.984;10.672;2023-06-05T01:11:52;11.60;1.00
30134;DHT22;16946;49.984;10.672;2023-06-05T01:12:28;11.60;1.00
30134;DHT22;16946;49.984;10.672;2023-06-05T01:13:34;11.70;1.00
30134;DHT22;16946;49.984;10.672;2023-06-05T01:14:11;11.70;1.00
30134;DHT22;16946;49.984;10.672;2023-06-05T01:14:45;11.60;1.00
30134;DHT22;16946;49.984;10.672;2023-06-05T01:15:18;11.60;1.00
30134;DHT22;16946;49.984;10.672;2023-06-05T01:15:49;11.60;1.00
30134;DHT22;16946;49.984;10.672;2023-06-05T01:16:21;11.60;1.00
30134;DHT22;16946;49.984;10.672;2023-06-05T01:17:02;11.60;1.00
30134;DHT22;16946;49.984;10.672;2023-06-05T01:17:34;11.60;1.00
30134;DHT22;16946;49.984;10.672;2023-06-05T01:18:05;11.60;1.00
30134;DHT22;16946;49.984;10.672;2023-06-05T01:18:37;11.60;1.00
30134;DHT22;16946;49.984;10.672;2023-06-05T01:19:13;11.60;1.00
30134;DHT22;16946;49.984;10.672;2023-06-05T01:19:45;11.60;1.00
30134;DHT22;16946;49.984;10.672;2023-06-05T01:20:16;11.60;1.00
30134;DHT22;16946;49.984;10.672;2023-06-05T01:20:50;11.60;1.00
30134;DHT22;16946;49.984;10.672;2023-06-05T01:21:22;11.60;1.00
30134;DHT22;16946;49.984;10.672;2023-06-05T01:21:53;11.60;1.00
30134;DHT22;16946;49.984;10.672;2023-06-05T01:22:25;11.60;1.00
30134;DHT22;16946;49.984;10.672;2023-06-05T01:22:56;11.60;1.00
30134;DHT22;16946;49.984;10.672;2023-06-05T01:23:27;11.60;1.00
30134;DHT22;16946;49.984;10.672;2023-06-05T01:23:59;11.60;1.00
30134;DHT22;16946;49.984;10.672;2023-06-05T01:24:30;11.60;1.00
30134;DHT22;16946;49.984;10.672;2023-06-05T01:25:01;11.60;1.00
30134;DHT22;16946;49.984;10.672;2023-06-05T01:25:33;11.60;1.00
30134;DHT22;16946;49.984;10.672;2023-06-05T01:26:05;11.60;1.00
30134;DHT22;16946;49.984;10.672;2023-06-05T01:26:45;11.60;1.00
30134;DHT22;16946;49.984;10.672;2023-06-05T01:27:40;11.60;1.00
30134;DHT22;16946;49.984;10.672;2023-06-05T01:28:21;11.60;1.00
30134;DHT22;16946;49.984;10.672;2023-06-05T01:28:53;11.60;1.00
30134;DHT22;16946;49.984;10.672;2023-06-05T01:30:44;11.70;1.00
30134;DHT22;16946;49.984;10.672;2023-06-05T01:31:20;11.70;1.00
30134;DHT22;16946;49.984;10.672;2023-06-05T01:31:54;11.70;99.90
30134;DHT22;16946;49.984;10.672;2023-06-05T01:33:13;11.70;99.90
30134;DHT22;16946;49.984;10.672;2023-06-05T01:33:50;11.70;1.00
30134;DHT22;16946;49.984;10.672;2023-06-05T01:34:27;11.60;1.00
30134;DHT22;16946;49.984;10.672;2023-06-05T01:34:59;11.60;1.00
30134;DHT22;16946;49.984;10.672;2023-06-05T01:35:31;11.70;1.00
30134;DHT22;16946;49.984;10.672;2023-06-05T01:36:03;11.60;1.00
30134;DHT22;16946;49.984;10.672;2023-06-05T01:36:36;11.60;1.00
30134;DHT22;16946;49.984;10.672;2023-06-05T01:37:07;11.60;1.00
30134;DHT22;16946;49.984;10.672;2023-06-05T01:37:40;11.60;1.00
30134;DHT22;16946;49.984;10.672;2023-06-05T01:38:17;11.60;1.00
30134;DHT22;16946;49.984;10.672;2023-06-05T01:38:49;11.50;1.00
30134;DHT22;16946;49.984;10.672;2023-06-05T01:39:21;11.60;1.00
30134;DHT22;16946;49.984;10.672;2023-06-05T01:39:54;11.60;1.00
30134;DHT22;16946;49.984;10.672;2023-06-05T01:40:26;11.60;1.00
30134;DHT22;16946;49.984;10.672;2023-06-05T01:40:57;11.50;1.00
30134;DHT22;16946;49.984;10.672;2023-06-05T01:41:28;11.50;1.00
30134;DHT22;16946;49.984;10.672;2023-06-05T01:41:59;11.50;1.00
30134;DHT22;16946;49.984;10.672;2023-06-05T01:42:30;11.40;2.40
30134;DHT22;16946;49.984;10.672;2023-06-05T01:43:01;11.40;5.00
30134;DHT22;16946;49.984;10.672;2023-06-05T01:43:33;11.40;17.40
30134;DHT22;16946;49.984;10.672;2023-06-05T01:44:05;11.40;30.60
30134;DHT22;16946;49.984;10.672;2023-06-05T01:44:39;11.40;39.40
30134;DHT22;16946;49.984;10.672;2023-06-05T01:45:11;11.40;37.10
30134;DHT22;16946;49.984;10.672;2023-06-05T01:45:43;11.30;57.30
30134;DHT22;16946;49.984;10.672;2023-06-05T01:46:16;11.30;70.50
30134;DHT22;16946;49.984;10.672;2023-06-05T01:46:48;11.30;88.30
30134;DHT22;16946;49.984;10.672;2023-06-05T01:47:19;11.30;92.50
30134;DHT22;16946;49.984;10.672;2023-06-05T01:47:52;11.30;94.90
30134;DHT22;16946;49.984;10.672;2023-06-05T01:48:24;11.20;96.60
30134;DHT22;16946;49.984;10.672;2023-06-05T01:48:57;11.20;99.70
30134;DHT22;16946;49.984;10.672;2023-06-05T01:49:31;11.30;93.60
30134;DHT22;16946;49.984;10.672;2023-06-05T01:50:02;11.20;99.00
30134;DHT22;16946;49.984;10.672;2023-06-05T01:50:33;11.20;99.80
30134;DHT22;16946;49.984;10.672;2023-06-05T01:51:06;11.20;99.90
30134;DHT22;16946;49.984;10.672;2023-06-05T01:51:36;11.20;99.90
30134;DHT22;16946;49.984;10.672;2023-06-05T01:52:07;11.20;98.30
30134;DHT22;16946;49.984;10.672;2023-06-05T01:52:38;11.20;99.90
30134;DHT22;16946;49.984;10.672;2023-06-05T01:53:10;11.20;99.90
30134;DHT22;16946;49.984;10.672;2023-06-05T01:53:42;11.20;99.90
30134;DHT22;16946;49.984;10.672;2023-06-05T01:54:13;11.20;93.60
30134;DHT22;16946;49.984;10.672;2023-06-05T01:54:46;11.20;99.50
30134;DHT22;16946;49.984;10.672;2023-06-05T01:55:20;11.20;98.70
30134;DHT22;16946;49.984;10.672;2023-06-05T01:55:54;11.20;97.00
30134;DHT22;16946;49.984;10.672;2023-06-05T01:56:30;11.20;99.90
30134;DHT22;16946;49.984;10.672;2023-06-05T01:57:00;11.20;96.20
30134;DHT22;16946;49.984;10.672;2023-06-05T01:57:31;11.20;88.10
30134;DHT22;16946;49.984;10.672;2023-06-05T01:58:04;11.20;86.60
30134;DHT22;16946;49.984;10.672;2023-06-05T01:58:34;11.20;94.10
30134;DHT22;16946;49.984;10.672;2023-06-05T01:59:05;11.20;97.60
30134;DHT22;16946;49.984;10.672;2023-06-05T01:59:37;11.20;99.90
30134;DHT22;16946;49.984;10.672;2023-06-05T02:00:08;11.20;99.90
30134;DHT22;16946;49.984;10.672;2023-06-05T02:00:43;11.20;99.90
30134;DHT22;16946;49.984;10.672;2023-06-05T02:01:15;11.20;99.90
30134;DHT22;16946;49.984;10.672;2023-06-05T02:01:46;11.10;99.90
30134;DHT22;16946;49.984;10.672;2023-06-05T02:02:17;11.10;99.90
30134;DHT22;16946;49.984;10.672;2023-06-05T02:02:49;11.10;99.90
30134;DHT22;16946;49.984;10.672;2023-06-05T02:03:20;11.10;99.90
30134;DHT22;16946;49.984;10.672;2023-06-05T02:03:51;11.00;99.90
30134;DHT22;16946;49.984;10.672;2023-06-05T02:04:23;11.10;99.90
30134;DHT22;16946;49.984;10.672;2023-06-05T02:04:54;11.10;99.90
30134;DHT22;16946;49.984;10.672;2023-06-05T02:05:25;11.10;99.90
30134;DHT22;16946;49.984;10.672;2023-06-05T02:05:59;11.00;99.90
30134;DHT22;16946;49.984;10.672;2023-06-05T02:06:34;11.00;99.90
30134;DHT22;16946;49.984;10.672;2023-06-05T02:07:16;11.00;99.90
30134;DHT22;16946;49.984;10.672;2023-06-05T02:07:49;11.10;99.90
30134;DHT22;16946;49.984;10.672;2023-06-05T02:08:23;11.10;99.90
30134;DHT22;16946;49.984;10.672;2023-06-05T02:08:55;11.10;99.90
30134;DHT22;16946;49.984;10.672;2023-06-05T02:09:25;11.10;99.90
30134;DHT22;16946;49.984;10.672;2023-06-05T02:09:56;11.10;99.90
30134;DHT22;16946;49.984;10.672;2023-06-05T02:10:32;11.10;99.90
30134;DHT22;16946;49.984;10.672;2023-06-05T02:11:03;11.10;99.90
30134;DHT22;16946;49.984;10.672;2023-06-05T02:11:42;11.10;99.90
30134;DHT22;16946;49.984;10.672;2023-06-05T02:12:16;11.10;99.90
30134;DHT22;16946;49.984;10.672;2023-06-05T02:12:47;11.20;99.90
30134;DHT22;16946;49.984;10.672;2023-06-05T02:13:18;11.20;99.90
30134;DHT22;16946;49.984;10.672;2023-06-05T02:13:49;11.20;99.90
30134;DHT22;16946;49.984;10.672;2023-06-05T02:14:23;11.20;99.90
30134;DHT22;16946;49.984;10.672;2023-06-05T02:14:55;11.20;99.90
30134;DHT22;16946;49.984;10.672;2023-06-05T02:15:27;11.20;99.90
30134;DHT22;16946;49.984;10.672;2023-06-05T02:15:59;11.20;99.90
30134;DHT22;16946;49.984;10.672;2023-06-05T02:16:30;11.20;99.90
30134;DHT22;16946;49.984;10.672;2023-06-05T02:17:04;11.10;99.90
30134;DHT22;16946;49.984;10.672;2023-06-05T02:17:36;11.10;99.90
30134;DHT22;16946;49.984;10.672;2023-06-05T02:18:07;11.10;99.90
30134;DHT22;16946;49.984;10.672;2023-06-05T02:18:38;11.10;99.90
30134;DHT22;16946;49.984;10.672;2023-06-05T02:19:08;11.10;99.90
30134;DHT22;16946;49.984;10.672;2023-06-05T02:19:40;11.10;99.90
30134;DHT22;16946;49.984;10.672;2023-06-05T02:20:12;11.10;99.90
30134;DHT22;16946;49.984;10.672;2023-06-05T02:20:43;11.10;99.90
30134;DHT22;16946;49.984;10.672;2023-06-05T02:21:13;11.10;99.90
30134;DHT22;16946;49.984;10.672;2023-06-05T02:21:45;11.10;99.90
30134;DHT22;16946;49.984;10.672;2023-06-05T02:22:15;11.10;99.90
30134;DHT22;16946;49.984;10.672;2023-06-05T02:22:46;11.10;99.90
30134;DHT22;16946;49.984;10.672;2023-06-05T02:23:20;11.10;99.90
30134;DHT22;16946;49.984;10.672;2023-06-05T02:23:51;11.10;99.90
30134;DHT22;16946;49.984;10.672;2023-06-05T02:24:21;11.10;99.90
30134;DHT22;16946;49.984;10.672;2023-06-05T02:24:53;11.10;99.90
30134;DHT22;16946;49.984;10.672;2023-06-05T02:25:24;11.00;99.90
30134;DHT22;16946;49.984;10.672;2023-06-05T02:25:57;11.00;99.90
30134;DHT22;16946;49.984;10.672;2023-06-05T02:26:28;11.00;99.90
30134;DHT22;16946;49.984;10.672;2023-06-05T02:26:58;11.00;99.90
30134;DHT22;16946;49.984;10.672;2023-06-05T02:27:29;11.00;99.90
30134;DHT22;16946;49.984;10.672;2023-06-05T02:28:00;10.90;99.90
30134;DHT22;16946;49.984;10.672;2023-06-05T02:28:30;10.90;99.90
30134;DHT22;16946;49.984;10.672;2023-06-05T02:29:01;10.90;99.90
30134;DHT22;16946;49.984;10.672;2023-06-05T02:29:31;10.90;99.90
30134;DHT22;16946;49.984;10.672;2023-06-05T02:30:03;10.90;99.90
30134;DHT22;16946;49.984;10.672;2023-06-05T02:30:34;10.90;99.90
30134;DHT22;16946;49.984;10.672;2023-06-05T02:31:04;10.90;99.90
30134;DHT22;16946;49.984;10.672;2023-06-05T02:31:35;10.90;99.90
30134;DHT22;16946;49.984;10.672;2023-06-05T02:32:07;10.80;99.90
30134;DHT22;16946;49.984;10.672;2023-06-05T02:32:37;10.80;99.90
30134;DHT22;16946;49.984;10.672;2023-06-05T02:33:12;10.80;99.90
30134;DHT22;16946;49.984;10.672;2023-06-05T02:33:43;10.70;99.90
30134;DHT22;16946;49.984;10.672;2023-06-05T02:34:13;10.80;99.90
30134;DHT22;16946;49.984;10.672;2023-06-05T02:34:44;10.70;99.90
30134;DHT22;16946;49.984;10.672;2023-06-05T02:35:17;10.80;99.90
30134;DHT22;16946;49.984;10.672;2023-06-05T02:35:48;10.70;99.90
30134;DHT22;16946;49.984;10.672;2023-06-05T02:36:19;10.70;99.90
30134;DHT22;16946;49.984;10.672;2023-06-05T02:36:49;10.80;99.90
30134;DHT22;16946;49.984;10.672;2023-06-05T02:37:20;10.80;99.90
30134;DHT22;16946;49.984;10.672;2023-06-05T02:37:53;10.80;99.90
30134;DHT22;16946;49.984;10.672;2023-06-05T02:38:23;10.80;99.90
30134;DHT22;16946;49.984;10.672;2023-06-05T02:38:54;10.70;99.90
30134;DHT22;16946;49.984;10.672;2023-06-05T02:39:25;10.80;99.90
30134;DHT22;16946;49.984;10.672;2023-06-05T02:39:56;10.80;99.90
30134;DHT22;16946;49.984;10.672;2023-06-05T02:40:26;10.70;99.90
30134;DHT22;16946;49.984;10.672;2023-06-05T02:40:57;10.80;99.90
30134;DHT22;16946;49.984;10.672;2023-06-05T02:41:27;10.80;99.90
30134;DHT22;16946;49.984;10.672;2023-06-05T02:41:58;10.80;99.90
30134;DHT22;16946;49.984;10.672;2023-06-05T02:42:28;10.90;99.90
30134;DHT22;16946;49.984;10.672;2023-06-05T02:42:59;10.80;99.90
30134;DHT22;16946;49.984;10.672;2023-06-05T02:43:30;10.80;99.90
30134;DHT22;16946;49.984;10.672;2023-06-05T02:44:00;10.80;99.90
30134;DHT22;16946;49.984;10.672;2023-06-05T02:44:31;10.80;99.90
30134;DHT22;16946;49.984;10.672;2023-06-05T02:45:03;10.80;99.90
30134;DHT22;16946;49.984;10.672;2023-06-05T02:45:34;10.70;99.90
30134;DHT22;16946;49.984;10.672;2023-06-05T02:46:05;10.70;99.90
30134;DHT22;16946;49.984;10.672;2023-06-05T02:46:35;10.70;99.90
30134;DHT22;16946;49.984;10.672;2023-06-05T02:47:06;10.70;99.90
30134;DHT22;16946;49.984;10.672;2023-06-05T02:47:37;10.70;99.90
30134;DHT22;16946;49.984;10.672;2023-06-05T02:48:07;10.70;99.90
30134;DHT22;16946;49.984;10.672;2023-06-05T02:48:38;10.80;99.90
30134;DHT22;16946;49.984;10.672;2023-06-05T02:49:08;10.80;99.90
30134;DHT22;16946;49.984;10.672;2023-06-05T02:49:39;10.80;99.90
30134;DHT22;16946;49.984;10.672;2023-06-05T02:50:09;10.80;99.90
30134;DHT22;16946;49.984;10.672;2023-06-05T02:50:40;10.90;99.90
30134;DHT22;16946;49.984;10.672;2023-06-05T02:51:11;10.80;99.90
30134;DHT22;16946;49.984;10.672;2023-06-05T02:51:41;10.80;99.90
30134;DHT22;16946;49.984;10.672;2023-06-05T02:52:12;10.80;99.90
30134;DHT22;16946;49.984;10.672;2023-06-05T02:52:42;10.70;99.90
30134;DHT22;16946;49.984;10.672;2023-06-05T02:53:13;10.70;99.90
30134;DHT22;16946;49.984;10.672;2023-06-05T02:53:46;10.60;99.90
30134;DHT22;16946;49.984;10.672;2023-06-05T02:54:16;10.60;99.90
30134;DHT22;16946;49.984;10.672;2023-06-05T02:54:47;10.60;99.90
30134;DHT22;16946;49.984;10.672;2023-06-05T02:55:17;10.60;99.90
30134;DHT22;16946;49.984;10.672;2023-06-05T02:55:48;10.60;99.90
30134;DHT22;16946;49.984;10.672;2023-06-05T02:56:19;10.60;99.90
30134;DHT22;16946;49.984;10.672;2023-06-05T02:56:52;10.60;99.90
30134;DHT22;16946;49.984;10.672;2023-06-05T02:57:24;10.50;99.90
30134;DHT22;16946;49.984;10.672;2023-06-05T02:57:57;10.50;99.90
30134;DHT22;16946;49.984;10.672;2023-06-05T02:58:28;10.40;99.90
30134;DHT22;16946;49.984;10.672;2023-06-05T02:58:58;10.40;99.90
30134;DHT22;16946;49.984;10.672;2023-06-05T02:59:32;10.40;99.90
30134;DHT22;16946;49.984;10.672;2023-06-05T03:00:03;10.40;99.90
30134;DHT22;16946;49.984;10.672;2023-06-05T03:00:38;10.40;99.90
30134;DHT22;16946;49.984;10.672;2023-06-05T03:01:09;10.40;99.90
30134;DHT22;16946;49.984;10.672;2023-06-05T03:01:41;10.40;99.90
30134;DHT22;16946;49.984;10.672;2023-06-05T03:02:13;10.30;99.90
30134;DHT22;16946;49.984;10.672;2023-06-05T03:02:44;10.30;99.90
30134;DHT22;16946;49.984;10.672;2023-06-05T03:03:18;10.40;99.90
30134;DHT22;16946;49.984;10.672;2023-06-05T03:03:50;10.40;99.90
30134;DHT22;16946;49.984;10.672;2023-06-05T03:04:23;10.40;99.90
30134;DHT22;16946;49.984;10.672;2023-06-05T03:04:54;10.40;99.90
30134;DHT22;16946;49.984;10.672;2023-06-05T03:05:25;10.40;99.90
30134;DHT22;16946;49.984;10.672;2023-06-05T03:05:58;10.30;99.90
30134;DHT22;16946;49.984;10.672;2023-06-05T03:06:38;10.30;99.90
30134;DHT22;16946;49.984;10.672;2023-06-05T03:07:09;10.30;99.90
30134;DHT22;16946;49.984;10.672;2023-06-05T03:07:40;10.30;99.90
30134;DHT22;16946;49.984;10.672;2023-06-05T03:08:10;10.30;99.90
30134;DHT22;16946;49.984;10.672;2023-06-05T03:08:41;10.30;99.90
30134;DHT22;16946;49.984;10.672;2023-06-05T03:09:12;10.30;99.90
30134;DHT22;16946;49.984;10.672;2023-06-05T03:09:42;10.30;99.90
30134;DHT22;16946;49.984;10.672;2023-06-05T03:10:13;10.20;99.90
30134;DHT22;16946;49.984;10.672;2023-06-05T03:10:43;10.30;99.90
30134;DHT22;16946;49.984;10.672;2023-06-05T03:11:14;10.20;99.90
30134;DHT22;16946;49.984;10.672;2023-06-05T03:11:44;10.30;99.90
30134;DHT22;16946;49.984;10.672;2023-06-05T03:12:15;10.30;99.90
30134;DHT22;16946;49.984;10.672;2023-06-05T03:12:45;10.20;99.90
30134;DHT22;16946;49.984;10.672;2023-06-05T03:13:16;10.20;99.90
30134;DHT22;16946;49.984;10.672;2023-06-05T03:13:47;10.20;99.90
30134;DHT22;16946;49.984;10.672;2023-06-05T03:14:17;10.30;99.90
30134;DHT22;16946;49.984;10.672;2023-06-05T03:14:48;10.30;99.90
30134;DHT22;16946;49.984;10.672;2023-06-05T03:15:18;10.30;99.90
30134;DHT22;16946;49.984;10.672;2023-06-05T03:15:49;10.20;99.90
30134;DHT22;16946;49.984;10.672;2023-06-05T03:16:23;10.20;99.90
30134;DHT22;16946;49.984;10.672;2023-06-05T03:17:03;10.20;99.90
30134;DHT22;16946;49.984;10.672;2023-06-05T03:17:34;10.20;99.90
30134;DHT22;16946;49.984;10.672;2023-06-05T03:18:04;10.10;99.90
30134;DHT22;16946;49.984;10.672;2023-06-05T03:18:35;10.20;99.90
30134;DHT22;16946;49.984;10.672;2023-06-05T03:19:06;10.20;99.90
30134;DHT22;16946;49.984;10.672;2023-06-05T03:19:36;10.20;99.90
30134;DHT22;16946;49.984;10.672;2023-06-05T03:20:07;10.10;99.90
30134;DHT22;16946;49.984;10.672;2023-06-05T03:20:40;10.10;99.90
30134;DHT22;16946;49.984;10.672;2023-06-05T03:21:10;10.10;99.90